Terminal Aerodrome Forecast
Issued by NWS

Home | Current Version | Previous Version | Text Only | Print | Product List | Glossary On
Versions: 1 2 3 4 5 6 7 8 9 10 11 12 13 14 15 16 17 18 19 20 21 22
000
FTUS41 KBOX 300848 AAD
TAFACK
TAF AMD
KACK 300848Z 3009/3106 35005KT P6SM BKN010
      TEMPO 3009/3012 3SM BR BKN007
     FM301400 03007KT P6SM SCT012
     FM301900 11006KT P6SM BKN250
     FM310100 14005KT 6SM BR SCT003 BKN150
     FM310300 15004KT 5SM BR BKN003=

USA.gov is the U.S. government's official web portal to all federal, state and local government web resources and services.